Time;durP1;ratioP1;P1;durP2;ratioP2;P2;SDS_P1;SDS_P2;PMS_P1;PMS_P2;Temp;Humidity;BMP_temperature;BMP_pressure;BME280_temperature;BME280_humidity;BME280_pressure;Samples;Min_cycle;Max_cycle;Signal;HPM_P1;HPM_P2
2021/08/03 00:01:06;;;;;;;7.15;4.13;;;15.20;99.90;;;;;;5072124;28;20028;-80
2021/08/03 00:03:36;;;;;;;7.22;4.15;;;15.10;99.90;;;;;;5066007;28;20024;-81
2021/08/03 00:06:09;;;;;;;7.78;4.68;;;17.70;99.90;;;;;;5078353;28;20031;-81
2021/08/03 00:08:40;;;;;;;6.30;4.15;;;15.30;99.90;;;;;;5084764;28;20204;-80
2021/08/03 00:11:10;;;;;;;9.82;4.45;;;15.30;99.90;;;;;;5075788;28;20037;-81
2021/08/03 00:13:37;;;;;;;7.18;4.20;;;15.90;99.90;;;;;;5066650;28;20483;-81
2021/08/03 00:16:09;;;;;;;4.90;3.13;;;15.30;99.90;;;;;;5070558;28;20048;-78
2021/08/03 00:18:40;;;;;;;5.68;3.30;;;15.30;99.90;;;;;;5065189;28;20066;-78
2021/08/03 00:21:07;;;;;;;8.35;4.57;;;15.30;99.90;;;;;;5066275;28;20557;-80
2021/08/03 00:23:39;;;;;;;7.10;3.25;;;15.30;99.90;;;;;;5066045;28;20032;-80
2021/08/03 00:26:05;;;;;;;10.95;5.88;;;16.60;99.90;;;;;;5070059;28;20032;-82
2021/08/03 00:28:31;;;;;;;5.65;3.22;;;15.30;99.90;;;;;;5079748;28;20059;-80
2021/08/03 00:30:58;;;;;;;4.93;3.20;;;15.20;99.90;;;;;;5059381;28;20036;-82
2021/08/03 00:33:23;;;;;;;4.10;3.03;;;15.20;99.90;;;;;;5072539;28;20020;-82
2021/08/03 00:35:50;;;;;;;4.68;3.22;;;15.20;99.90;;;;;;5073348;28;20071;-80
2021/08/03 00:38:17;;;;;;;5.10;3.50;;;15.50;99.90;;;;;;5070856;28;20028;-81
2021/08/03 00:40:59;;;;;;;5.68;3.13;;;15.20;99.90;;;;;;5071224;28;20070;-78
2021/08/03 00:43:25;;;;;;;4.45;3.10;;;15.30;99.90;;;;;;5073252;28;20029;-83
2021/08/03 00:45:51;;;;;;;6.32;3.90;;;15.30;99.90;;;;;;5066840;28;20021;-79
2021/08/03 00:48:16;;;;;;;4.85;3.33;;;15.30;99.90;;;;;;5077676;28;20073;-80
2021/08/03 00:50:43;;;;;;;3.85;2.83;;;15.30;99.90;;;;;;5065628;28;20025;-79
2021/08/03 00:53:09;;;;;;;4.72;3.10;;;15.30;99.90;;;;;;5073207;28;20086;-80
2021/08/03 00:55:37;;;;;;;6.60;4.00;;;16.50;99.90;;;;;;5068961;28;20025;-81
2021/08/03 00:58:04;;;;;;;7.00;2.95;;;15.30;99.90;;;;;;5076740;28;20027;-78
2021/08/03 01:00:29;;;;;;;5.10;3.22;;;15.30;99.90;;;;;;5075034;28;20033;-82
2021/08/03 01:02:55;;;;;;;4.20;2.88;;;18.00;99.90;;;;;;5069869;28;20055;-79
2021/08/03 01:05:21;;;;;;;4.80;3.05;;;15.60;99.90;;;;;;5078111;28;20036;-83
2021/08/03 01:07:58;;;;;;;5.05;3.65;;;16.20;99.90;;;;;;5076276;28;20062;-80
2021/08/03 01:10:34;;;;;;;4.68;3.03;;;15.30;99.90;;;;;;5071771;28;20017;-79
2021/08/03 01:13:21;;;;;;;5.57;3.08;;;15.30;99.90;;;;;;5073132;28;20105;-77
2021/08/03 01:15:54;;;;;;;3.88;2.45;;;15.30;99.90;;;;;;5069382;28;20071;-80
2021/08/03 01:18:35;;;;;;;5.20;3.30;;;16.10;99.90;;;;;;5061968;28;20025;-78
2021/08/03 01:21:22;;;;;;;4.53;2.97;;;15.40;99.90;;;;;;5072522;28;20119;-77
2021/08/03 01:24:01;;;;;;;6.97;3.03;;;15.40;99.90;;;;;;5072953;28;20074;-80
2021/08/03 01:26:47;;;;;;;8.23;2.88;;;15.40;99.90;;;;;;5072215;28;20021;-81
2021/08/03 01:29:17;;;;;;;5.63;3.33;;;16.60;99.90;;;;;;5069559;28;20028;-80
2021/08/03 01:31:48;;;;;;;5.38;3.20;;;15.30;99.90;;;;;;5060823;28;20028;-80
2021/08/03 01:34:16;;;;;;;5.50;2.95;;;15.30;99.90;;;;;;5067685;28;20425;-79
2021/08/03 01:36:46;;;;;;;4.38;2.63;;;17.10;99.90;;;;;;5070090;28;20020;-79
2021/08/03 01:39:15;;;;;;;5.10;2.80;;;15.40;99.90;;;;;;5074707;28;20096;-80
2021/08/03 01:41:44;;;;;;;4.72;2.90;;;15.50;99.90;;;;;;5060806;28;20032;-79
2021/08/03 01:44:12;;;;;;;4.20;2.65;;;15.40;99.90;;;;;;5073356;28;20028;-80
2021/08/03 01:46:39;;;;;;;7.20;2.92;;;15.50;99.90;;;;;;5067802;28;20106;-80
2021/08/03 01:49:05;;;;;;;5.47;2.92;;;15.40;99.90;;;;;;5064698;28;20073;-78
2021/08/03 01:51:32;;;;;;;8.05;2.90;;;15.40;99.90;;;;;;5073861;28;20107;-79
2021/08/03 01:53:59;;;;;;;3.67;2.40;;;16.30;99.90;;;;;;5064620;28;20097;-79
2021/08/03 01:56:25;;;;;;;8.07;3.20;;;15.70;99.90;;;;;;5072988;28;20367;-80
2021/08/03 01:58:52;;;;;;;3.95;2.95;;;15.20;99.90;;;;;;5074727;28;20028;-77
2021/08/03 02:01:21;;;;;;;6.13;2.97;;;15.40;99.90;;;;;;5075632;28;20029;-80
2021/08/03 02:03:49;;;;;;;4.68;2.60;;;15.40;99.90;;;;;;5073438;28;20099;-80
2021/08/03 02:06:16;;;;;;;3.92;2.65;;;15.30;99.90;;;;;;5068810;28;20028;-82
2021/08/03 02:08:44;;;;;;;3.45;2.47;;;15.30;99.90;;;;;;5064943;28;20048;-80
2021/08/03 02:11:09;;;;;;;4.10;2.60;;;16.30;99.90;;;;;;5075434;28;20048;-80
2021/08/03 02:13:35;;;;;;;4.45;2.65;;;15.30;99.90;;;;;;5074398;28;20079;-82
2021/08/03 02:16:02;;;;;;;5.90;2.70;;;15.30;99.90;;;;;;5071856;28;20033;-81
2021/08/03 02:18:27;;;;;;;3.03;2.13;;;15.30;99.90;;;;;;5073785;28;20031;-80
2021/08/03 02:20:54;;;;;;;5.68;3.15;;;15.30;99.90;;;;;;5073301;28;20024;-80
2021/08/03 02:23:20;;;;;;;3.50;2.10;;;16.50;99.90;;;;;;5068835;28;20066;-78
2021/08/03 02:25:46;;;;;;;3.75;2.22;;;17.60;99.90;;;;;;5072007;28;20025;-82
2021/08/03 02:28:12;;;;;;;3.63;2.45;;;15.30;99.90;;;;;;5068303;28;20059;-80
2021/08/03 02:30:39;;;;;;;3.50;2.50;;;15.20;99.90;;;;;;5074838;28;20490;-79
2021/08/03 02:33:13;;;;;;;3.80;2.60;;;15.20;99.90;;;;;;5065966;28;20036;-80
2021/08/03 02:35:56;;;;;;;6.15;3.53;;;15.50;99.90;;;;;;5075482;28;20025;-80
2021/08/03 02:38:25;;;;;;;4.68;2.40;;;15.20;99.90;;;;;;5074086;28;20048;-82
2021/08/03 02:40:52;;;;;;;4.13;2.50;;;15.30;99.90;;;;;;5069885;28;20100;-82
2021/08/03 02:43:20;;;;;;;6.43;2.60;;;15.20;99.90;;;;;;5067312;28;20024;-80
2021/08/03 02:45:46;;;;;;;5.22;2.90;;;16.00;99.90;;;;;;5068405;28;20024;-82
2021/08/03 02:48:15;;;;;;;12.07;4.05;;;15.10;99.90;;;;;;5074623;28;20020;-82
2021/08/03 02:50:44;;;;;;;4.53;2.78;;;15.10;99.90;;;;;;5069811;28;20025;-81
2021/08/03 02:53:25;;;;;;;5.03;2.55;;;15.00;99.90;;;;;;5070365;28;20028;-80
2021/08/03 02:55:55;;;;;;;5.85;2.92;;;15.00;99.90;;;;;;5071952;28;20039;-80
2021/08/03 02:58:37;;;;;;;3.75;2.80;;;15.00;99.90;;;;;;5077496;28;20397;-78
2021/08/03 03:01:05;;;;;;;3.80;2.65;;;15.10;99.90;;;;;;5065824;28;20440;-81
2021/08/03 03:03:34;;;;;;;4.55;3.17;;;15.20;99.90;;;;;;5071237;28;20050;-80
2021/08/03 03:06:04;;;;;;;5.53;2.95;;;15.00;99.90;;;;;;5064668;28;20465;-78
2021/08/03 03:08:32;;;;;;;5.10;3.33;;;15.10;99.90;;;;;;5073519;28;20044;-80
2021/08/03 03:11:01;;;;;;;4.40;2.75;;;15.10;99.90;;;;;;5068968;28;20040;-80
2021/08/03 03:13:40;;;;;;;5.45;3.17;;;15.40;99.90;;;;;;5074819;28;20107;-80
2021/08/03 03:16:08;;;;;;;5.43;3.10;;;15.00;99.90;;;;;;5072794;28;20032;-82
2021/08/03 03:18:34;;;;;;;3.85;2.88;;;15.00;99.90;;;;;;5066585;28;20125;-82
2021/08/03 03:21:02;;;;;;;3.40;2.35;;;14.90;99.90;;;;;;5079784;28;20060;-81
2021/08/03 03:23:32;;;;;;;4.63;2.53;;;15.00;99.90;;;;;;5079379;28;20040;-78
2021/08/03 03:25:59;;;;;;;3.58;2.60;;;15.10;99.90;;;;;;5082062;28;20024;-81
2021/08/03 03:28:28;;;;;;;4.80;3.30;;;15.10;99.90;;;;;;5092065;28;20047;-78
2021/08/03 03:30:55;;;;;;;4.68;2.67;;;15.40;99.90;;;;;;5085808;28;20037;-78
2021/08/03 03:33:22;;;;;;;4.43;2.88;;;15.20;99.90;;;;;;5069502;28;20059;-78
2021/08/03 03:35:49;;;;;;;4.22;2.80;;;15.20;99.90;;;;;;5070007;28;20086;-78
2021/08/03 03:38:21;;;;;;;5.07;2.72;;;15.20;99.90;;;;;;5076179;28;20054;-80
2021/08/03 03:40:50;;;;;;;6.22;3.10;;;15.50;99.90;;;;;;5071426;28;20028;-78
2021/08/03 03:43:20;;;;;;;4.65;2.75;;;15.40;99.90;;;;;;5061621;28;20048;-79
2021/08/03 03:45:49;;;;;;;;;;;15.20;99.90;;;;;;5075084;28;20025;-81
2021/08/03 03:48:19;;;;;;;5.97;2.85;;;15.20;99.90;;;;;;5074870;28;19991;-77
2021/08/03 03:50:59;;;;;;;7.80;3.13;;;17.00;99.90;;;;;;5071855;28;20028;-79
2021/08/03 03:53:31;;;;;;;;;;;15.20;99.90;;;;;;5068187;28;20488;-81
2021/08/03 03:56:03;;;;;;;4.53;2.70;;;15.70;99.90;;;;;;5076508;28;20318;-77
2021/08/03 03:58:34;;;;;;;4.00;3.03;;;15.30;99.90;;;;;;5067355;28;20029;-81
2021/08/03 04:01:00;;;;;;;4.47;3.42;;;15.20;99.90;;;;;;5069080;28;20021;-81
2021/08/03 04:03:28;;;;;;;5.07;2.80;;;15.20;99.90;;;;;;5063417;28;20120;-80
2021/08/03 04:05:54;;;;;;;5.10;2.70;;;16.10;99.90;;;;;;5071498;28;20109;-83
2021/08/03 04:08:20;;;;;;;3.13;2.30;;;15.20;99.90;;;;;;5074145;28;20040;-81
2021/08/03 04:10:45;;;;;;;4.43;2.33;;;15.20;99.90;;;;;;5066946;28;20110;-81
2021/08/03 04:13:12;;;;;;;5.40;2.60;;;15.70;99.90;;;;;;5076558;28;20115;-83
2021/08/03 04:15:38;;;;;;;6.20;2.58;;;15.60;99.90;;;;;;5073416;28;20043;-79
2021/08/03 04:18:04;;;;;;;4.68;2.50;;;15.20;99.90;;;;;;5070612;28;20039;-82
2021/08/03 04:20:31;;;;;;;3.42;2.22;;;16.40;99.90;;;;;;5067281;28;20265;-80
2021/08/03 04:22:56;;;;;;;3.78;2.60;;;15.20;99.90;;;;;;5070873;28;20414;-81
2021/08/03 04:25:22;;;;;;;3.97;2.38;;;16.10;99.90;;;;;;5067376;28;20020;-82
2021/08/03 04:27:48;;;;;;;4.30;2.58;;;15.20;99.90;;;;;;5066505;28;20099;-83
2021/08/03 04:30:15;;;;;;;3.38;2.30;;;15.20;99.90;;;;;;5075707;28;20020;-79
2021/08/03 04:32:41;;;;;;;4.47;2.53;;;15.20;99.90;;;;;;5071998;28;20093;-81
2021/08/03 04:35:08;;;;;;;4.40;2.38;;;16.50;99.90;;;;;;5064818;28;20060;-81
2021/08/03 04:37:45;;;;;;;3.55;2.20;;;15.10;99.90;;;;;;5071368;28;20017;-81
2021/08/03 04:40:13;;;;;;;3.65;2.05;;;15.20;99.90;;;;;;5055868;28;20025;-82
2021/08/03 04:42:39;;;;;;;4.45;2.50;;;15.20;99.90;;;;;;5071097;28;20025;-80
2021/08/03 04:45:06;;;;;;;3.88;2.20;;;15.20;99.90;;;;;;5067846;28;20025;-81
2021/08/03 04:47:31;;;;;;;4.18;2.40;;;15.10;99.90;;;;;;5071504;28;20094;-81
2021/08/03 04:49:57;;;;;;;4.95;2.83;;;15.20;99.90;;;;;;5073184;28;20036;-80
2021/08/03 04:52:23;;;;;;;3.38;2.50;;;15.10;99.90;;;;;;5071801;28;20040;-80
2021/08/03 04:54:49;;;;;;;6.05;2.53;;;15.10;99.90;;;;;;5074025;28;20064;-80
2021/08/03 04:57:14;;;;;;;5.60;2.50;;;15.10;99.90;;;;;;5085707;28;20115;-80
2021/08/03 04:59:40;;;;;;;5.60;2.88;;;15.10;99.90;;;;;;5067347;28;20032;-81
2021/08/03 05:02:05;;;;;;;6.63;2.47;;;15.30;99.90;;;;;;5072474;28;20028;-81
2021/08/03 05:04:34;;;;;;;6.28;2.40;;;15.20;99.90;;;;;;5077214;28;20058;-80
2021/08/03 05:07:04;;;;;;;7.43;2.92;;;15.20;99.90;;;;;;5062946;28;20518;-81
2021/08/03 05:09:30;;;;;;;4.53;2.58;;;15.20;99.90;;;;;;5067878;28;20029;-83
2021/08/03 05:11:55;;;;;;;5.70;2.53;;;15.30;99.90;;;;;;5072679;28;20541;-82
2021/08/03 05:14:21;;;;;;;4.53;2.10;;;15.40;99.90;;;;;;5069153;28;20039;-81
2021/08/03 05:16:47;;;;;;;3.33;2.00;;;15.30;99.90;;;;;;5073838;28;20020;-81
2021/08/03 05:19:12;;;;;;;4.18;2.20;;;15.30;99.90;;;;;;5063713;28;20083;-83
2021/08/03 05:21:38;;;;;;;3.10;2.03;;;15.30;99.90;;;;;;5062442;28;20028;-80
2021/08/03 05:24:04;;;;;;;3.42;2.22;;;15.40;99.90;;;;;;5071305;28;20024;-81
2021/08/03 05:26:29;;;;;;;4.68;2.47;;;15.40;99.90;;;;;;5076508;28;20028;-78
2021/08/03 05:28:55;;;;;;;4.82;2.45;;;15.40;99.90;;;;;;5073643;28;20021;-81
2021/08/03 05:31:20;;;;;;;3.67;1.80;;;15.40;99.90;;;;;;5067575;28;20039;-82
2021/08/03 05:33:46;;;;;;;4.50;2.40;;;15.40;99.90;;;;;;5077954;28;20039;-80
2021/08/03 05:36:12;;;;;;;6.03;2.13;;;15.50;99.90;;;;;;5074756;28;20079;-81
2021/08/03 05:38:37;;;;;;;5.68;2.03;;;16.30;99.90;;;;;;5067184;28;20037;-80
2021/08/03 05:41:03;;;;;;;3.83;2.00;;;15.50;99.90;;;;;;5070417;28;20029;-79
2021/08/03 05:43:28;;;;;;;3.63;1.77;;;15.50;99.90;;;;;;5060039;28;20025;-81
2021/08/03 05:45:54;;;;;;;4.18;1.80;;;17.10;99.90;;;;;;5071554;28;20031;-78
2021/08/03 05:48:19;;;;;;;3.15;1.85;;;15.50;99.90;;;;;;5060721;28;20089;-81
2021/08/03 05:50:45;;;;;;;3.70;2.00;;;16.80;99.90;;;;;;5067257;28;20021;-81
2021/08/03 05:53:11;;;;;;;2.80;1.75;;;16.00;99.90;;;;;;5068604;28;20032;-83
2021/08/03 05:55:36;;;;;;;3.92;1.63;;;15.40;99.90;;;;;;5066258;28;20426;-84
2021/08/03 05:58:02;;;;;;;4.07;2.08;;;15.40;99.90;;;;;;5069969;28;20024;-79
2021/08/03 06:00:28;;;;;;;2.28;1.50;;;15.50;99.90;;;;;;5068320;28;20028;-80
2021/08/03 06:02:53;;;;;;;3.05;1.80;;;15.50;99.90;;;;;;5088666;28;20086;-79
2021/08/03 06:05:19;;;;;;;3.47;1.70;;;;;;;;;;5072707;28;20549;-82
2021/08/03 06:07:50;;;;;;;2.88;1.50;;;15.50;99.90;;;;;;5075532;28;20051;-82
2021/08/03 06:10:16;;;;;;;4.60;1.92;;;15.50;99.90;;;;;;5079182;28;20020;-83
2021/08/03 06:12:49;;;;;;;6.78;2.05;;;15.50;99.90;;;;;;5073106;28;20111;-81
2021/08/03 06:15:15;;;;;;;3.47;1.70;;;;;;;;;;5075309;28;20028;-84
2021/08/03 06:17:45;;;;;;;3.42;1.55;;;15.50;99.90;;;;;;5084635;28;20029;-82
2021/08/03 06:20:12;;;;;;;2.70;1.67;;;15.50;99.90;;;;;;5078222;28;20165;-85
2021/08/03 06:22:39;;;;;;;5.40;2.35;;;15.50;99.90;;;;;;5072816;28;20040;-82
2021/08/03 06:25:12;;;;;;;4.13;2.08;;;15.50;99.90;;;;;;5070392;28;20021;-85
2021/08/03 06:27:40;;;;;;;7.13;2.45;;;15.90;99.90;;;;;;5064353;28;20029;-85
2021/08/03 06:30:07;;;;;;;4.72;2.15;;;15.70;99.90;;;;;;5068455;28;20078;-86
2021/08/03 06:32:33;;;;;;;4.30;1.90;;;15.50;99.90;;;;;;5072948;28;20055;-85
2021/08/03 06:35:00;;;;;;;6.07;1.98;;;15.50;99.90;;;;;;5072582;28;20397;-82
2021/08/03 06:37:26;;;;;;;6.22;2.10;;;15.50;99.90;;;;;;5078539;28;20159;-84
2021/08/03 06:39:51;;;;;;;4.32;2.40;;;15.50;99.90;;;;;;5069954;28;20063;-84
2021/08/03 06:42:36;;;;;;;3.42;1.92;;;15.70;99.90;;;;;;5068218;28;20033;-86
2021/08/03 06:45:05;;;;;;;2.67;1.85;;;15.50;99.90;;;;;;5075941;28;20044;-87
2021/08/03 06:47:49;;;;;;;4.35;1.75;;;15.50;99.90;;;;;;5079688;28;20028;-82
2021/08/03 06:50:18;;;;;;;6.25;1.98;;;15.50;99.90;;;;;;5089459;28;20045;-82
2021/08/03 06:52:45;;;;;;;4.13;1.90;;;15.50;99.90;;;;;;5066820;28;20436;-79
2021/08/03 06:55:13;;;;;;;3.58;1.95;;;15.50;99.90;;;;;;5064652;28;20033;-85
2021/08/03 06:57:50;;;;;;;6.43;2.40;;;15.60;99.90;;;;;;5067509;28;20027;-84
2021/08/03 07:00:16;;;;;;;3.60;1.92;;;15.50;99.90;;;;;;5064042;28;20060;-82
2021/08/03 07:02:44;;;;;;;3.40;1.80;;;15.80;99.90;;;;;;5069579;28;20043;-81
2021/08/03 07:05:18;;;;;;;3.13;1.30;;;15.60;99.90;;;;;;5074983;28;20024;-81
2021/08/03 07:07:44;;;;;;;4.03;1.50;;;15.60;99.90;;;;;;5078564;28;20032;-81
2021/08/03 07:10:12;;;;;;;3.08;1.35;;;15.70;99.90;;;;;;5074836;28;20021;-85
2021/08/03 07:12:42;;;;;;;2.03;1.35;;;15.70;99.90;;;;;;5068454;28;20084;-83
2021/08/03 07:15:08;;;;;;;2.97;1.70;;;15.70;99.90;;;;;;5071670;28;20025;-83
2021/08/03 07:17:35;;;;;;;3.25;1.70;;;15.70;99.90;;;;;;5077741;28;20029;-86
2021/08/03 07:20:01;;;;;;;2.72;1.35;;;16.60;99.90;;;;;;5081360;28;20025;-85
2021/08/03 07:22:27;;;;;;;3.90;1.60;;;15.80;99.90;;;;;;5081505;28;20131;-83
2021/08/03 07:24:53;;;;;;;3.60;1.52;;;16.80;99.90;;;;;;5079172;28;20016;-81
2021/08/03 07:27:19;;;;;;;4.82;1.92;;;15.70;99.90;;;;;;5077919;28;20163;-82
2021/08/03 07:29:45;;;;;;;2.47;1.50;;;15.80;99.90;;;;;;5082043;28;20031;-84
2021/08/03 07:32:14;;;;;;;3.20;1.73;;;16.30;99.90;;;;;;5080163;28;20444;-87
2021/08/03 07:34:41;;;;;;;3.47;1.65;;;17.30;99.90;;;;;;5076705;28;20021;-85
2021/08/03 07:37:08;;;;;;;2.25;1.40;;;18.20;99.90;;;;;;5080306;28;20024;-83
2021/08/03 07:39:35;;;;;;;2.53;1.50;;;15.80;99.90;;;;;;5071825;28;20096;-83
2021/08/03 07:42:01;;;;;;;5.80;1.80;;;15.80;99.90;;;;;;5064788;28;20029;-86
2021/08/03 07:44:27;;;;;;;3.20;1.90;;;15.70;99.90;;;;;;5085117;28;20025;-84
2021/08/03 07:46:52;;;;;;;4.05;1.92;;;16.60;99.90;;;;;;5080067;28;20108;-80
2021/08/03 07:49:18;;;;;;;5.07;1.90;;;15.60;99.90;;;;;;5078450;28;20039;-82
2021/08/03 07:51:49;;;;;;;5.80;1.92;;;15.50;99.90;;;;;;5077527;28;20025;-83
2021/08/03 07:54:15;;;;;;;4.40;2.15;;;15.50;99.90;;;;;;5078541;28;20486;-80
2021/08/03 07:56:41;;;;;;;3.53;1.90;;;15.50;99.90;;;;;;5070863;28;20038;-84
2021/08/03 07:59:07;;;;;;;6.50;2.20;;;;;;;;;;5072384;28;20456;-85
2021/08/03 08:01:36;;;;;;;3.75;1.90;;;15.40;99.90;;;;;;5075890;28;20028;-85
2021/08/03 08:04:02;;;;;;;4.13;2.10;;;;;;;;;;5078579;28;20028;-86
2021/08/03 08:06:28;;;;;;;3.95;2.17;;;;;;;;;;5078116;28;20029;-85
2021/08/03 08:08:54;;;;;;;5.60;2.15;;;;;;;;;;5074470;28;20036;-85
2021/08/03 08:11:20;;;;;;;7.38;2.20;;;;;;;;;;5078590;28;20026;-88
2021/08/03 08:13:46;;;;;;;4.68;2.30;;;;;;;;;;5073970;28;20088;-85
2021/08/03 08:16:12;;;;;;;4.43;2.03;;;15.30;99.90;;;;;;5070363;28;20157;-86
2021/08/03 08:18:38;;;;;;;8.23;2.65;;;15.30;99.90;;;;;;5077569;28;20028;-84
2021/08/03 08:21:04;;;;;;;3.95;2.15;;;17.80;99.90;;;;;;5075266;28;20037;-84
2021/08/03 08:23:30;;;;;;;4.15;1.98;;;15.40;99.90;;;;;;5073306;28;20017;-82
2021/08/03 08:25:58;;;;;;;3.38;1.77;;;;;;;;;;5074289;28;20071;-85
2021/08/03 08:28:24;;;;;;;3.92;1.90;;;15.60;99.90;;;;;;5076463;28;20024;-83
2021/08/03 08:30:50;;;;;;;3.78;1.55;;;;;;;;;;5072699;28;20044;-84
2021/08/03 08:33:16;;;;;;;1.88;1.42;;;;;;;;;;5072207;28;20066;-84
2021/08/03 08:35:42;;;;;;;2.28;1.60;;;;;;;;;;5067259;28;20029;-84
2021/08/03 08:38:09;;;;;;;2.05;1.27;;;;;;;;;;5068534;28;20590;-87
2021/08/03 08:40:35;;;;;;;2.38;1.48;;;;;;;;;;5075751;28;20119;-86
2021/08/03 08:43:00;;;;;;;2.95;1.52;;;15.60;99.90;;;;;;5059753;28;20021;-86
2021/08/03 08:45:26;;;;;;;2.83;1.77;;;15.70;99.90;;;;;;5059667;28;20090;-86
2021/08/03 08:47:52;;;;;;;2.50;1.45;;;16.10;99.90;;;;;;5078095;28;20036;-87
2021/08/03 08:50:21;;;;;;;6.20;1.60;;;15.80;99.90;;;;;;5077484;28;20021;-85
2021/08/03 08:52:53;;;;;;;1.92;1.33;;;19.20;99.90;;;;;;5075510;28;20027;-85
2021/08/03 08:55:19;;;;;;;3.92;1.63;;;15.90;99.90;;;;;;5078035;28;20095;-84
2021/08/03 08:57:47;;;;;;;3.13;1.77;;;15.90;99.90;;;;;;5074632;28;20104;-86
2021/08/03 09:00:13;;;;;;;2.72;1.60;;;15.90;99.90;;;;;;5069544;28;20082;-84
2021/08/03 09:02:42;;;;;;;2.75;1.75;;;15.90;99.90;;;;;;5077008;28;20037;-85
2021/08/03 09:05:09;;;;;;;3.22;1.50;;;15.90;99.90;;;;;;5076743;28;20092;-84
2021/08/03 09:07:50;;;;;;;2.45;1.50;;;15.90;99.90;;;;;;5077451;28;20033;-81
2021/08/03 09:10:30;;;;;;;;;;;16.00;99.90;;;;;;5074145;28;20020;-86
2021/08/03 09:13:07;;;;;;;3.92;1.50;;;16.00;99.90;;;;;;5075958;28;19912;-86
2021/08/03 09:15:35;;;;;;;18.33;10.52;;;15.90;99.90;;;;;;5070644;28;20025;-86
2021/08/03 09:18:28;;;;;;;2.78;1.63;;;15.90;99.90;;;;;;5066477;28;20505;-86
2021/08/03 09:20:55;;;;;;;2.45;1.30;;;15.90;99.90;;;;;;5068571;28;20087;-86
2021/08/03 09:23:43;;;;;;;2.47;1.27;;;17.20;99.90;;;;;;5068232;28;20139;-83
2021/08/03 09:26:09;;;;;;;2.72;1.42;;;15.90;99.90;;;;;;5074983;28;20035;-84
2021/08/03 09:28:54;;;;;;;2.35;1.35;;;15.80;99.90;;;;;;5071132;28;20020;-82
2021/08/03 09:31:20;;;;;;;2.83;1.20;;;15.80;99.90;;;;;;5078336;28;20039;-82
2021/08/03 09:33:46;;;;;;;1.70;1.20;;;15.80;99.90;;;;;;5085788;28;20029;-80
2021/08/03 09:36:12;;;;;;;4.03;1.50;;;15.90;99.90;;;;;;5068365;28;20025;-82
2021/08/03 09:38:38;;;;;;;2.30;1.50;;;15.90;99.90;;;;;;5073340;28;20035;-82
2021/08/03 09:41:09;;;;;;;2.13;1.67;;;15.80;99.90;;;;;;5076756;28;20055;-82
2021/08/03 09:43:35;;;;;;;2.45;1.60;;;;;;;;;;5080221;28;20029;-82
2021/08/03 09:46:01;;;;;;;2.85;1.55;;;15.80;99.90;;;;;;5079831;28;20302;-85
2021/08/03 09:48:29;;;;;;;2.05;1.45;;;15.80;99.90;;;;;;5081882;28;20021;-83
2021/08/03 09:51:06;;;;;;;2.83;1.40;;;16.70;99.90;;;;;;5077444;28;20109;-84
2021/08/03 09:53:46;;;;;;;3.17;1.38;;;16.00;99.90;;;;;;5078112;28;20028;-82
2021/08/03 09:56:16;;;;;;;2.27;1.40;;;16.10;99.90;;;;;;5078510;28;20489;-85
2021/08/03 09:58:59;;;;;;;2.88;1.48;;;16.20;99.90;;;;;;5079226;28;20033;-81
2021/08/03 10:01:33;;;;;;;2.83;1.70;;;16.40;99.90;;;;;;5077772;28;20056;-83
2021/08/03 10:04:04;;;;;;;3.65;1.27;;;16.60;99.90;;;;;;5078744;28;20028;-84
2021/08/03 10:06:31;;;;;;;2.65;1.45;;;17.10;99.90;;;;;;5079163;28;20410;-83
2021/08/03 10:08:57;;;;;;;2.45;1.75;;;17.10;99.90;;;;;;5070906;28;20021;-82
2021/08/03 10:11:24;;;;;;;2.90;1.30;;;17.80;99.90;;;;;;5073132;28;20029;-84
2021/08/03 10:13:51;;;;;;;1.40;1.08;;;19.90;99.90;;;;;;5080347;28;20481;-81
2021/08/03 10:16:17;;;;;;;1.90;0.90;;;16.30;99.90;;;;;;5073589;28;20043;-82
2021/08/03 10:18:53;;;;;;;1.25;0.95;;;18.70;99.90;;;;;;5075228;28;20028;-83
2021/08/03 10:21:31;;;;;;;1.90;1.00;;;18.80;99.90;;;;;;5069896;28;20105;-84
2021/08/03 10:24:01;;;;;;;1.30;0.70;;;18.80;99.90;;;;;;5100777;28;20088;-84
2021/08/03 10:26:27;;;;;;;1.35;0.80;;;18.90;99.90;;;;;;5078839;28;20071;-83
2021/08/03 10:29:21;;;;;;;1.65;0.90;;;18.90;99.90;;;;;;5076876;28;20016;-84
2021/08/03 10:31:47;;;;;;;2.17;0.98;;;20.20;99.90;;;;;;5075874;28;20025;-82
2021/08/03 10:34:42;;;;;;;0.73;0.65;;;19.00;99.90;;;;;;5078078;28;20137;-86
2021/08/03 10:37:08;;;;;;;0.93;0.70;;;19.10;99.90;;;;;;5078877;28;20021;-83
2021/08/03 10:40:09;;;;;;;1.92;0.80;;;19.30;99.90;;;;;;5083254;28;20028;-83
2021/08/03 10:42:35;;;;;;;2.22;1.00;;;;;;;;;;5065419;28;20036;-83
2021/08/03 10:45:16;;;;;;;1.20;0.80;;;19.10;99.90;;;;;;5069386;28;20102;-83
2021/08/03 10:47:42;;;;;;;0.93;0.80;;;19.10;99.90;;;;;;5067166;28;20059;-87
2021/08/03 10:50:10;;;;;;;2.58;0.98;;;19.40;99.90;;;;;;5075255;28;20052;-83
2021/08/03 10:52:46;;;;;;;1.50;0.90;;;19.30;99.90;;;;;;5078825;28;20021;-81
2021/08/03 10:55:43;;;;;;;2.08;1.15;;;19.20;99.90;;;;;;5078610;28;20029;-80
2021/08/03 10:58:09;;;;;;;2.42;1.00;;;19.20;99.90;;;;;;5066731;28;20033;-82
2021/08/03 11:00:45;;;;;;;1.83;1.17;;;19.00;99.90;;;;;;5078735;28;20099;-80
2021/08/03 11:03:33;;;;;;;2.78;1.30;;;19.00;99.90;;;;;;5073860;28;20116;-82
2021/08/03 11:06:18;;;;;;;2.33;1.45;;;18.80;99.90;;;;;;5072027;28;20028;-82
2021/08/03 11:08:48;;;;;;;2.00;1.35;;;18.50;99.90;;;;;;5077375;28;20048;-85
2021/08/03 11:11:25;;;;;;;3.03;1.13;;;18.50;99.90;;;;;;5075871;28;20025;-80
2021/08/03 11:13:55;;;;;;;2.65;1.45;;;18.40;99.90;;;;;;5069856;28;20263;-81
2021/08/03 11:16:23;;;;;;;2.47;1.40;;;18.30;99.90;;;;;;5074309;28;20027;-80
2021/08/03 11:18:54;;;;;;;3.03;1.30;;;21.00;99.90;;;;;;5067227;28;20582;-82
2021/08/03 11:21:20;;;;;;;2.00;1.20;;;;;;;;;;5060069;28;20040;-83
2021/08/03 11:24:09;;;;;;;2.70;1.20;;;18.40;99.90;;;;;;5062566;28;20021;-83
2021/08/03 11:26:41;;;;;;;1.45;0.95;;;18.70;99.90;;;;;;5078657;28;20029;-82
2021/08/03 11:29:16;;;;;;;1.80;1.10;;;18.60;99.90;;;;;;5079145;28;20016;-83
2021/08/03 11:31:43;;;;;;;2.58;1.13;;;18.70;99.90;;;;;;5067643;28;20035;-82
2021/08/03 11:34:11;;;;;;;1.48;1.10;;;18.80;99.90;;;;;;5073306;28;20024;-84
2021/08/03 11:36:38;;;;;;;1.13;0.95;;;;;;;;;;5075718;28;20028;-81
2021/08/03 11:39:23;;;;;;;5.43;2.72;;;19.00;99.90;;;;;;5078720;28;20058;-79
2021/08/03 11:41:50;;;;;;;1.50;1.00;;;19.20;99.90;;;;;;5077707;28;20028;-82
2021/08/03 11:44:18;;;;;;;4.20;0.98;;;19.10;99.90;;;;;;5071954;28;20028;-85
2021/08/03 11:46:45;;;;;;;0.95;0.80;;;19.00;99.90;;;;;;5059384;28;20044;-83
2021/08/03 11:49:11;;;;;;;1.52;1.10;;;;;;;;;;5075716;28;20025;-82
2021/08/03 11:51:44;;;;;;;1.92;1.15;;;19.10;99.90;;;;;;5071839;28;20028;-85
2021/08/03 11:54:17;;;;;;;2.75;1.70;;;19.00;99.90;;;;;;5074867;28;20120;-85
2021/08/03 11:56:43;;;;;;;2.08;1.20;;;;;;;;;;5079158;28;20056;-85
2021/08/03 11:59:11;;;;;;;2.78;1.45;;;;;;;;;;5073762;28;20036;-86
2021/08/03 12:01:57;;;;;;;2.50;1.52;;;19.50;99.90;;;;;;5078022;28;20028;-81
2021/08/03 12:04:23;;;;;;;6.28;2.67;;;;;;;;;;5068382;28;20041;-82
2021/08/03 12:06:51;;;;;;;2.55;1.55;;;19.90;99.90;;;;;;5073463;28;20040;-86
2021/08/03 12:09:18;;;;;;;3.03;1.90;;;20.10;99.90;;;;;;5079639;28;20029;-85
2021/08/03 12:11:45;;;;;;;2.15;1.58;;;;;;;;;;5072031;28;20087;-84
2021/08/03 12:14:15;;;;;;;3.10;1.70;;;20.30;99.90;;;;;;5079263;28;20062;-83
2021/08/03 12:16:45;;;;;;;2.25;1.60;;;20.80;99.90;;;;;;5075941;28;20021;-84
2021/08/03 12:19:30;;;;;;;3.35;1.35;;;20.90;99.90;;;;;;5077383;28;20048;-83
2021/08/03 12:21:57;;;;;;;3.05;1.55;;;;;;;;;;5065789;28;20032;-84
2021/08/03 12:24:23;;;;;;;2.85;1.60;;;;;;;;;;5077806;28;20032;-82
2021/08/03 12:26:49;;;;;;;2.60;1.60;;;;;;;;;;5073266;28;20017;-80
2021/08/03 12:29:33;;;;;;;4.30;2.20;;;20.30;99.90;;;;;;5070951;28;20596;-81
2021/08/03 12:31:59;;;;;;;12.57;6.32;;;;;;;;;;5067552;28;20039;-81
2021/08/03 12:34:25;;;;;;;2.38;1.70;;;;;;;;;;5077306;28;20028;-83
2021/08/03 12:36:56;;;;;;;2.60;1.90;;;20.80;99.90;;;;;;5077828;28;20064;-81
2021/08/03 12:39:54;;;;;;;3.50;1.52;;;21.00;99.90;;;;;;5076957;28;20436;-83
2021/08/03 12:42:21;;;;;;;2.53;1.70;;;21.30;99.90;;;;;;5071022;28;20135;-82
2021/08/03 12:44:53;;;;;;;2.45;1.50;;;21.30;99.90;;;;;;5071348;28;20149;-81
2021/08/03 12:47:21;;;;;;;1.90;1.40;;;21.30;99.90;;;;;;5063705;28;20487;-82
2021/08/03 12:49:51;;;;;;;3.97;1.85;;;21.10;99.90;;;;;;5076558;28;20031;-86
2021/08/03 12:52:19;;;;;;;2.35;1.50;;;21.40;99.90;;;;;;5062957;28;20028;-82
2021/08/03 12:55:00;;;;;;;2.55;1.52;;;21.60;99.90;;;;;;5076214;28;20525;-82
2021/08/03 12:57:41;;;;;;;2.05;1.45;;;21.10;99.90;;;;;;5071899;28;20021;-85
2021/08/03 13:00:25;;;;;;;2.13;1.35;;;21.10;99.90;;;;;;5064822;28;20074;-85
2021/08/03 13:02:51;;;;;;;2.83;1.38;;;20.90;99.90;;;;;;5075268;28;20031;-84
2021/08/03 13:05:17;;;;;;;3.28;1.95;;;;;;;;;;5077141;28;20017;-83
2021/08/03 13:07:50;;;;;;;2.22;1.45;;;;;;;;;;5157816;27;20388;-82
2021/08/03 13:10:16;;;;;;;3.67;1.85;;;20.60;99.90;;;;;;5113559;28;20036;-83